createdAt,value
2019-04-25T00:00:07.572Z,77.55
2019-04-25T00:01:07.622Z,77.83
2019-04-25T00:02:07.870Z,78.12
2019-04-25T00:03:07.576Z,78.5
2019-04-25T00:04:07.556Z,77.64
2019-04-25T00:05:07.794Z,77.01
2019-04-25T00:06:07.541Z,76.44
2019-04-25T00:07:07.857Z,76.54
2019-04-25T00:08:07.813Z,76.35
2019-04-25T00:09:07.796Z,75.96
2019-04-25T00:10:07.760Z,76.16
2019-04-25T00:11:07.763Z,75.96
2019-04-25T00:12:07.872Z,76.54
2019-04-25T00:13:07.970Z,76.82
2019-04-25T00:14:07.766Z,76.79
2019-04-25T00:15:07.764Z,77.69
2019-04-25T00:16:07.506Z,77.55
2019-04-25T00:17:07.592Z,77.36
2019-04-25T00:18:07.510Z,77.64
2019-04-25T00:19:07.508Z,77.83
2019-04-25T00:20:07.762Z,77.64
2019-04-25T00:21:07.530Z,77.83
2019-04-25T00:22:07.564Z,77.83
2019-04-25T00:23:07.472Z,78.31
2019-04-25T00:24:07.449Z,78.16
2019-04-25T00:25:18.096Z,77.69
2019-04-25T00:26:07.698Z,77.11
2019-04-25T00:27:07.741Z,77.4
2019-04-25T00:28:07.452Z,76.92
2019-04-25T00:29:07.429Z,77.3
2019-04-25T00:30:07.414Z,76.73
2019-04-25T00:31:07.430Z,76.82
2019-04-25T00:32:07.469Z,76.64
2019-04-25T00:33:07.400Z,76.35
2019-04-25T00:34:07.636Z,76.64
2019-04-25T00:35:07.649Z,76.5
2019-04-25T00:36:07.637Z,76.79
2019-04-25T00:37:07.705Z,77.07
2019-04-25T00:38:07.378Z,77.17
2019-04-25T00:39:07.627Z,77.45
2019-04-25T00:40:07.622Z,77.36
2019-04-25T00:41:07.597Z,77.07
2019-04-25T00:42:07.668Z,77.55
2019-04-25T00:43:07.587Z,77.74
2019-04-25T00:44:07.366Z,77.64
2019-04-25T00:45:07.578Z,77.2
2019-04-25T00:46:07.575Z,77.2
2019-04-25T00:47:07.626Z,76.54
2019-04-25T00:48:07.335Z,76.54
2019-04-25T00:49:07.310Z,76.35
2019-04-25T00:50:07.553Z,76.35
2019-04-25T00:51:07.552Z,76.44
2019-04-25T00:52:07.712Z,76.44
2019-04-25T00:53:07.340Z,76.44
2019-04-25T00:54:07.308Z,76.06
2019-04-25T00:55:07.303Z,75.4
2019-04-25T00:56:07.281Z,75.3
2019-04-25T00:57:07.328Z,75.4
2019-04-25T00:58:07.522Z,75.2
2019-04-25T00:59:07.514Z,75.68
2019-04-25T01:00:07.274Z,74.92
2019-04-25T01:01:07.512Z,74.54
2019-04-25T01:02:11.439Z,74.19
2019-04-25T01:03:07.252Z,74.92
2019-04-25T01:04:07.511Z,74.63
2019-04-25T01:05:07.487Z,75.68
2019-04-25T01:06:07.485Z,75.49
2019-04-25T01:07:07.637Z,75.3
2019-04-25T01:08:07.489Z,75.3
2019-04-25T01:09:07.466Z,76.64
2019-04-25T01:10:07.464Z,76.54
2019-04-25T01:11:07.225Z,76.92
2019-04-25T01:12:07.563Z,76.54
2019-04-25T01:13:07.455Z,76.64
2019-04-25T01:14:07.211Z,76.44
2019-04-25T01:15:07.205Z,76.16
2019-04-25T01:16:07.434Z,76.44
2019-04-25T01:17:07.497Z,76.73
2019-04-25T01:18:07.177Z,76.35
2019-04-25T01:19:07.430Z,76.73
2019-04-25T01:20:07.420Z,76.82
2019-04-25T01:21:07.171Z,76.64
2019-04-25T01:22:07.432Z,76.35
2019-04-25T01:23:07.256Z,76.82
2019-04-25T01:24:07.150Z,76.73
2019-04-25T01:25:07.168Z,77.2
2019-04-25T01:26:07.146Z,77.3
2019-04-25T01:27:07.865Z,77.26
2019-04-25T01:28:07.375Z,77.55
2019-04-25T01:29:07.126Z,78.12
2019-04-25T01:30:08.580Z,78.31
2019-04-25T01:31:07.116Z,77.49
2019-04-25T01:32:07.468Z,76.64
2019-04-25T01:33:07.265Z,76.44
2019-04-25T01:34:07.107Z,75.87
2019-04-25T01:35:07.371Z,76.73
2019-04-25T01:36:07.339Z,76.06
2019-04-25T01:37:07.491Z,75.68
2019-04-25T01:38:07.330Z,75.49
2019-04-25T01:39:07.347Z,75.49
2019-04-25T01:40:07.325Z,76.16
2019-04-25T01:41:07.319Z,75.4
2019-04-25T01:42:07.800Z,75.59
2019-04-25T01:43:07.314Z,75.59
2019-04-25T01:44:07.318Z,75.96
2019-04-25T01:45:07.058Z,76.25
2019-04-25T01:46:07.050Z,76.35
2019-04-25T01:47:07.299Z,76.82
2019-04-25T01:48:07.296Z,76.44
2019-04-25T01:49:07.277Z,76.25
2019-04-25T01:50:07.299Z,76.06
2019-04-25T01:51:07.297Z,76.73
2019-04-25T01:52:07.411Z,76.54
2019-04-25T01:53:07.020Z,76.44
2019-04-25T01:54:07.015Z,75.96
2019-04-25T01:55:08.019Z,75.87
2019-04-25T01:56:09.842Z,75.49
2019-04-25T01:57:06.991Z,75.78
2019-04-25T01:58:07.241Z,76.31
2019-04-25T01:59:07.241Z,76.79
2019-04-25T02:00:07.238Z,77.07
2019-04-25T02:01:07.219Z,76.64
2019-04-25T02:02:08.939Z,76.35
2019-04-25T02:03:07.252Z,75.49
2019-04-25T02:04:07.221Z,75.3
2019-04-25T02:05:07.590Z,74.92
2019-04-25T02:06:07.509Z,75.36
2019-04-25T02:07:06.942Z,75.55
2019-04-25T02:08:09.377Z,75.93
2019-04-25T02:09:07.713Z,76.59
2019-04-25T02:10:06.941Z,76.03
2019-04-25T02:11:06.939Z,76.5
2019-04-25T02:12:07.315Z,76.4
2019-04-25T02:13:06.924Z,76.5
2019-04-25T02:14:07.639Z,76.12
2019-04-25T02:15:08.421Z,75.26
2019-04-25T02:16:07.757Z,74.69
2019-04-25T02:17:07.147Z,74.63
2019-04-25T02:18:06.901Z,74.63
2019-04-25T02:19:07.128Z,72.92
2019-04-25T02:20:06.880Z,73.11
2019-04-25T02:21:07.122Z,72.92
2019-04-25T02:22:07.121Z,72.63
2019-04-25T02:23:06.877Z,72.63
2019-04-25T02:24:08.115Z,72.16
2019-04-25T02:25:07.118Z,71.96
2019-04-25T02:26:18.608Z,72.06
2019-04-25T02:27:07.192Z,72.06
2019-04-25T02:28:08.143Z,72.25
2019-04-25T02:29:06.936Z,71.96
2019-04-25T02:30:09.428Z,71.96
2019-04-25T02:31:11.189Z,71.87
2019-04-25T02:32:11.089Z,72.06
2019-04-25T02:33:11.475Z,73.77
2019-04-25T02:34:10.790Z,73.11
2019-04-25T02:35:11.776Z,73.11
2019-04-25T02:36:11.192Z,73.11
2019-04-25T02:37:14.336Z,73.11
2019-04-25T02:38:11.185Z,73.49
2019-04-25T02:39:11.360Z,73.96
2019-04-25T02:40:10.464Z,74.25
2019-04-25T02:41:11.106Z,73.87
2019-04-25T02:42:10.690Z,73.74
2019-04-25T02:43:10.526Z,74.31
2019-04-25T02:44:14.356Z,74.4
2019-04-25T02:45:10.862Z,75.36
2019-04-25T02:46:10.174Z,75.16
2019-04-25T02:47:10.684Z,75.55
2019-04-25T02:48:08.162Z,76.21
2019-04-25T02:49:27.200Z,76.21
2019-04-25T02:50:10.893Z,76.21
2019-04-25T02:51:09.803Z,75.55
2019-04-25T02:52:13.619Z,75.93
2019-04-25T02:53:08.317Z,75.93
2019-04-25T02:54:10.267Z,75.93
2019-04-25T02:55:27.802Z,76.4
2019-04-25T02:56:31.050Z,76.59
2019-04-25T02:57:10.158Z,76.79
2019-04-25T02:58:11.264Z,76.59
2019-04-25T02:59:10.811Z,76.4
2019-04-25T03:00:10.904Z,77.07
2019-04-25T03:01:22.558Z,76.69
2019-04-25T03:02:09.476Z,77.07
2019-04-25T03:03:09.859Z,77.36
2019-04-25T03:04:11.518Z,77.13
2019-04-25T03:05:13.925Z,77.32
2019-04-25T03:06:11.339Z,77.22
2019-04-25T03:07:14.707Z,77.8
2019-04-25T03:08:10.972Z,77.61
2019-04-25T03:09:10.122Z,77.8
2019-04-25T03:10:10.398Z,77.7
2019-04-25T03:11:09.750Z,77.89
2019-04-25T03:12:09.907Z,77.89
2019-04-25T03:13:14.536Z,77.89
2019-04-25T03:14:10.198Z,77.98
2019-04-25T03:15:10.607Z,77.51
2019-04-25T03:16:11.333Z,77.89
2019-04-25T03:17:09.950Z,77.7
2019-04-25T03:18:12.898Z,78.17
2019-04-25T03:19:09.694Z,77.7
2019-04-25T03:20:12.693Z,77.7
2019-04-25T03:21:14.010Z,77.7
2019-04-25T03:22:12.674Z,77.22
2019-04-25T03:23:10.801Z,77.03
2019-04-25T03:24:13.759Z,77.13
2019-04-25T03:25:13.648Z,77.13
2019-04-25T03:26:09.054Z,77.03
2019-04-25T03:27:09.136Z,77.61
2019-04-25T03:28:09.221Z,77.8
2019-04-25T03:29:09.307Z,78.08
2019-04-25T03:30:14.601Z,77.7
2019-04-25T03:31:21.755Z,77.7
2019-04-25T03:32:16.264Z,77.42
2019-04-25T03:33:18.232Z,77.7
2019-04-25T03:34:19.199Z,76.94
2019-04-25T03:35:08.887Z,76.88
2019-04-25T03:36:09.309Z,77.07
2019-04-25T03:37:09.395Z,77.26
2019-04-25T03:38:08.556Z,77.45
2019-04-25T03:39:08.671Z,76.69
2019-04-25T03:40:09.622Z,76.59
2019-04-25T03:41:08.644Z,76.31
2019-04-25T03:42:08.453Z,76.31
2019-04-25T03:43:08.766Z,76.79
2019-04-25T03:44:08.018Z,76.98
2019-04-25T03:45:09.203Z,75.45
2019-04-25T03:46:08.347Z,76.03
2019-04-25T03:47:09.822Z,75.93
2019-04-25T03:48:08.394Z,75.74
2019-04-25T03:49:08.409Z,76.12
2019-04-25T03:50:09.852Z,76.03
2019-04-25T03:51:08.126Z,76.59
2019-04-25T03:52:07.955Z,76.4
2019-04-25T03:53:07.955Z,77.26
2019-04-25T03:54:10.595Z,78.27
2019-04-25T03:55:07.760Z,79.7
2019-04-25T03:56:08.626Z,80.55
2019-04-25T03:57:08.731Z,81.79
2019-04-25T03:58:10.944Z,82.18
2019-04-25T03:59:08.480Z,82.84
2019-04-25T04:00:08.917Z,83.13
2019-04-25T04:01:09.698Z,82.93
2019-04-25T04:02:09.144Z,83.7
2019-04-25T04:03:09.136Z,83.51
2019-04-25T04:04:09.088Z,84.04
2019-04-25T04:05:09.594Z,84.17
2019-04-25T04:06:09.880Z,84.46
2019-04-25T04:07:11.328Z,84.36
2019-04-25T04:08:07.714Z,84.17
2019-04-25T04:09:09.721Z,84.17
2019-04-25T04:10:08.124Z,84.36
2019-04-25T04:11:10.111Z,84.23
2019-04-25T04:12:07.979Z,84.42
2019-04-25T04:13:08.681Z,84.84
2019-04-25T04:14:08.227Z,85.08
2019-04-25T04:15:08.344Z,84.8
2019-04-25T04:16:08.440Z,85.7
2019-04-25T04:17:08.808Z,85.85
2019-04-25T04:18:08.614Z,85.94
2019-04-25T04:19:08.878Z,85.94
2019-04-25T04:20:08.853Z,86.22
2019-04-25T04:21:08.964Z,86.42
2019-04-25T04:22:07.852Z,85.99
2019-04-25T04:23:07.878Z,86.27
2019-04-25T04:24:07.505Z,85.89
2019-04-25T04:25:06.267Z,85.6
2019-04-25T04:26:07.348Z,85.22
2019-04-25T04:27:10.525Z,84.27
2019-04-25T04:28:06.264Z,83.41
2019-04-25T04:29:07.789Z,82.56
2019-04-25T04:30:06.645Z,82.56
2019-04-25T04:31:06.624Z,81.51
2019-04-25T04:32:06.924Z,81.98
2019-04-25T04:33:06.961Z,81.89
2019-04-25T04:34:06.321Z,82.46
2019-04-25T04:35:07.209Z,82.46
2019-04-25T04:36:07.285Z,82.27
2019-04-25T04:37:07.446Z,82.18
2019-04-25T04:38:06.447Z,82.37
2019-04-25T04:39:06.197Z,82.27
2019-04-25T04:40:07.902Z,82.46
2019-04-25T04:41:07.326Z,82.46
2019-04-25T04:42:06.410Z,82.56
2019-04-25T04:43:07.994Z,83.13
2019-04-25T04:44:06.608Z,82.56
2019-04-25T04:45:06.393Z,82.6
2019-04-25T04:46:06.456Z,81.26
2019-04-25T04:47:06.327Z,80.35
2019-04-25T04:48:06.191Z,79.59
2019-04-25T04:49:06.428Z,79.06
2019-04-25T04:50:06.421Z,77.34
2019-04-25T04:51:06.171Z,75.37
2019-04-25T04:52:09.318Z,74.42
2019-04-25T04:53:06.364Z,73.66
2019-04-25T04:54:06.360Z,71.59
2019-04-25T04:55:11.546Z,70.29
2019-04-25T04:56:06.682Z,68.7
2019-04-25T04:57:28.740Z,67.18
2019-04-25T04:58:06.735Z,66.35
2019-04-25T04:59:06.354Z,65.2
2019-04-25T05:00:06.122Z,64.15
2019-04-25T05:01:06.148Z,64.37
2019-04-25T05:02:06.336Z,64.09
2019-04-25T05:03:06.954Z,62.74
2019-04-25T05:04:06.437Z,61.72
2019-04-25T05:05:06.352Z,61.91
2019-04-25T05:06:06.093Z,61.05
2019-04-25T05:07:06.091Z,60.13
2019-04-25T05:08:06.085Z,60.13
2019-04-25T05:09:06.240Z,60.13
2019-04-25T05:10:06.333Z,59.48
2019-04-25T05:11:06.490Z,58.05
2019-04-25T05:12:06.551Z,57.09
2019-04-25T05:13:06.526Z,57.95
2019-04-25T05:14:06.467Z,59.01
2019-04-25T05:15:06.098Z,59.55
2019-04-25T05:16:06.096Z,60.67
2019-04-25T05:17:06.643Z,61.82
2019-04-25T05:18:06.510Z,62.3
2019-04-25T05:19:06.387Z,63.03
2019-04-25T05:20:06.339Z,62.27
2019-04-25T05:21:06.674Z,62.2
2019-04-25T05:22:06.095Z,61.91
2019-04-25T05:23:08.849Z,61.63
2019-04-25T05:24:06.604Z,61.72
2019-04-25T05:25:06.394Z,61.34
2019-04-25T05:26:06.854Z,61.82
2019-04-25T05:27:06.342Z,62.46
2019-04-25T05:28:07.791Z,62.2
2019-04-25T05:29:06.350Z,61.91
2019-04-25T05:30:06.463Z,62.46
2019-04-25T05:31:06.098Z,63.42
2019-04-25T05:32:06.709Z,64.43
2019-04-25T05:33:06.476Z,66.35
2019-04-25T05:34:06.435Z,67.18
2019-04-25T05:35:06.098Z,67.65
2019-04-25T05:36:08.383Z,67.84
2019-04-25T05:37:06.348Z,66.83
2019-04-25T05:38:06.098Z,66.06
2019-04-25T05:39:06.497Z,66.44
2019-04-25T05:40:08.048Z,65.97
2019-04-25T05:41:06.512Z,64.37
2019-04-25T05:42:08.502Z,63.26
2019-04-25T05:43:06.334Z,61.15
2019-04-25T05:44:06.929Z,59.97
2019-04-25T05:45:06.909Z,58.05
2019-04-25T05:46:06.345Z,56.35
2019-04-25T05:47:06.616Z,55.42
2019-04-25T05:48:08.212Z,55.42
2019-04-25T05:49:07.625Z,56.54
2019-04-25T05:50:06.333Z,56.07
2019-04-25T05:51:06.434Z,56.74
2019-04-25T05:52:06.522Z,57.31
2019-04-25T05:53:06.519Z,59.39
2019-04-25T05:54:07.455Z,60.32
2019-04-25T05:55:06.418Z,61.25
2019-04-25T05:56:06.616Z,62.27
2019-04-25T05:57:06.357Z,63.23
2019-04-25T05:58:06.474Z,64.25
2019-04-25T05:59:07.984Z,64.91
2019-04-25T06:00:06.355Z,66.06
2019-04-25T06:01:06.370Z,66.73
2019-04-25T06:02:06.392Z,67.27
2019-04-25T06:03:06.358Z,67.46
2019-04-25T06:04:07.655Z,68.04
2019-04-25T06:05:06.110Z,67.75
2019-04-25T06:06:06.112Z,68.13
2019-04-25T06:07:08.151Z,68.61
2019-04-25T06:08:06.852Z,69.09
2019-04-25T06:09:06.584Z,69.56
2019-04-25T06:10:06.526Z,69.56
2019-04-25T06:11:06.274Z,70.01
2019-04-25T06:12:07.184Z,70.23
2019-04-25T06:13:06.347Z,69.76
2019-04-25T06:14:06.093Z,69.37
2019-04-25T06:15:06.090Z,69.31
2019-04-25T06:16:06.104Z,67.78
2019-04-25T06:17:06.093Z,64.59
2019-04-25T06:18:06.352Z,60.16
2019-04-25T06:19:18.877Z,56.29
2019-04-25T06:20:08.322Z,55.1
2019-04-25T06:21:06.093Z,52.62
2019-04-25T06:22:06.090Z,50.34
2019-04-25T06:23:06.332Z,49.33
2019-04-25T06:24:06.739Z,46.86
2019-04-25T06:25:13.585Z,46.31
2019-04-25T06:26:27.706Z,45.17
2019-04-25T06:27:06.103Z,44.13
2019-04-25T06:28:06.337Z,44.42
2019-04-25T06:29:06.340Z,43.55
2019-04-25T06:30:06.879Z,42.8
2019-04-25T06:31:10.353Z,43
2019-04-25T06:32:10.773Z,41.57
2019-04-25T06:33:06.359Z,41.2
2019-04-25T06:34:07.016Z,40.34
2019-04-25T06:35:07.221Z,39.32
2019-04-25T06:36:06.619Z,38.74
2019-04-25T06:37:08.439Z,38.66
2019-04-25T06:38:06.378Z,39.72
2019-04-25T06:39:06.550Z,39.04
2019-04-25T06:40:07.817Z,38.74
2019-04-25T06:41:06.386Z,38.85
2019-04-25T06:42:06.224Z,38.74
2019-04-25T06:43:06.407Z,38.08
2019-04-25T06:44:06.494Z,38.1
2019-04-25T06:45:06.158Z,37.82
2019-04-25T06:46:06.412Z,37.05
2019-04-25T06:47:06.170Z,36.08
2019-04-25T06:48:06.199Z,35.81
2019-04-25T06:49:06.195Z,34.19
2019-04-25T06:50:06.741Z,34.3
2019-04-25T06:51:06.205Z,33.72
2019-04-25T06:52:06.645Z,33.81
2019-04-25T06:53:07.653Z,33.42
2019-04-25T06:54:06.205Z,33.51
2019-04-25T06:55:06.476Z,34.57
2019-04-25T06:56:06.471Z,34.38
2019-04-25T06:57:06.712Z,34.67
2019-04-25T06:58:14.725Z,33.14
2019-04-25T06:59:06.494Z,32.86
2019-04-25T07:00:06.955Z,33.06
2019-04-25T07:01:06.499Z,33.14
2019-04-25T07:02:06.711Z,33.51
2019-04-25T07:03:06.756Z,33.29
2019-04-25T07:04:06.537Z,33.29
2019-04-25T07:05:06.274Z,33.2
2019-04-25T07:06:06.534Z,33.29
2019-04-25T07:07:15.076Z,33.29
2019-04-25T07:08:06.539Z,33.02
2019-04-25T07:09:06.548Z,33.02
2019-04-25T07:10:06.357Z,32.54
2019-04-25T07:11:06.312Z,32.34
2019-04-25T07:12:06.576Z,31.97
2019-04-25T07:13:06.753Z,31.97
2019-04-25T07:14:06.645Z,31.76
2019-04-25T07:15:06.589Z,31.2
2019-04-25T07:16:06.904Z,31.86
2019-04-25T07:17:06.599Z,31.18
2019-04-25T07:18:06.366Z,30.21
2019-04-25T07:19:07.034Z,30.79
2019-04-25T07:20:06.380Z,30.13
2019-04-25T07:21:06.671Z,29.84
2019-04-25T07:22:06.628Z,30.04
2019-04-25T07:23:06.397Z,30.21
2019-04-25T07:24:06.642Z,30.31
2019-04-25T07:25:06.405Z,29.83
2019-04-25T07:26:06.404Z,30.02
2019-04-25T07:27:06.698Z,29.64
2019-04-25T07:28:06.422Z,29.84
2019-04-25T07:29:07.787Z,30.69
2019-04-25T07:30:06.427Z,31.93
2019-04-25T07:31:06.683Z,33.15
2019-04-25T07:32:08.402Z,35.14
2019-04-25T07:33:06.693Z,36.48
2019-04-25T07:34:06.452Z,37.02
2019-04-25T07:35:06.719Z,38.06
2019-04-25T07:36:06.764Z,37.68
2019-04-25T07:37:06.485Z,37.19
2019-04-25T07:38:06.716Z,37.01
2019-04-25T07:39:13.437Z,36.83
2019-04-25T07:40:06.729Z,37.21
2019-04-25T07:41:06.740Z,36.93
2019-04-25T07:42:06.733Z,37.52
2019-04-25T07:43:07.159Z,36.19
2019-04-25T07:44:06.494Z,33.91
2019-04-25T07:45:06.888Z,33.63
2019-04-25T07:46:06.748Z,34.63
2019-04-25T07:47:06.506Z,33.01
2019-04-25T07:48:06.595Z,30.11
2019-04-25T07:49:06.790Z,29.76
2019-04-25T07:50:06.829Z,30.84
2019-04-25T07:51:06.549Z,28.63
2019-04-25T07:52:06.789Z,27.67
2019-04-25T07:53:08.144Z,26.98
2019-04-25T07:54:06.992Z,26.6
2019-04-25T07:55:06.549Z,25.82
2019-04-25T07:56:06.553Z,25.82
2019-04-25T07:57:06.563Z,25.9
2019-04-25T07:58:06.808Z,26.29
2019-04-25T07:59:06.569Z,26.01
2019-04-25T08:00:07.176Z,25.74
2019-04-25T08:01:06.583Z,25.45
2019-04-25T08:02:06.840Z,25.16
2019-04-25T08:03:06.869Z,24.97
2019-04-25T08:04:06.847Z,24.1
2019-04-25T08:05:06.862Z,24.58
2019-04-25T08:06:07.686Z,24.49
2019-04-25T08:07:06.625Z,24.77
2019-04-25T08:08:06.631Z,25.14
2019-04-25T08:09:06.878Z,25.53
2019-04-25T08:10:06.889Z,25.43
2019-04-25T08:11:06.944Z,25.54
2019-04-25T08:12:06.897Z,25.05
2019-04-25T08:13:07.507Z,25.25
2019-04-25T08:14:06.665Z,24.66
2019-04-25T08:15:06.911Z,24.48
2019-04-25T08:16:06.930Z,24.85
2019-04-25T08:17:06.937Z,24.85
2019-04-25T08:18:06.689Z,25.42
2019-04-25T08:19:06.942Z,26.37
2019-04-25T08:20:06.947Z,26.46
2019-04-25T08:21:06.708Z,27.72
2019-04-25T08:22:06.957Z,27.04
2019-04-25T08:23:06.730Z,26.57
2019-04-25T08:24:06.968Z,25.52
2019-04-25T08:25:06.979Z,25.14
2019-04-25T08:26:06.982Z,25.32
2019-04-25T08:27:06.989Z,25.34
2019-04-25T08:28:06.745Z,25.32
2019-04-25T08:29:07.020Z,25.79
2019-04-25T08:30:06.761Z,26.09
2019-04-25T08:31:07.007Z,25.79
2019-04-25T08:32:06.808Z,25.71
2019-04-25T08:33:06.780Z,24.95
2019-04-25T08:34:07.048Z,24.85
2019-04-25T08:35:07.037Z,24.07
2019-04-25T08:36:11.387Z,24.08
2019-04-25T08:37:21.100Z,24.48
2019-04-25T08:38:08.066Z,24.95
2019-04-25T08:39:07.065Z,25.32
2019-04-25T08:40:06.823Z,25.7
2019-04-25T08:41:06.925Z,27.04
2019-04-25T08:42:06.826Z,28.38
2019-04-25T08:43:07.124Z,28.85
2019-04-25T08:44:06.844Z,29.69
2019-04-25T08:45:07.140Z,30.44
2019-04-25T08:46:06.929Z,30.93
2019-04-25T08:47:07.131Z,31.68
2019-04-25T08:48:07.120Z,31.67
2019-04-25T08:49:08.860Z,31.86
2019-04-25T08:50:07.139Z,32.44
2019-04-25T08:51:07.196Z,33.2
2019-04-25T08:52:06.889Z,33.39
2019-04-25T08:53:06.894Z,33.29
2019-04-25T08:54:07.152Z,33.29
2019-04-25T08:55:07.163Z,33.2
2019-04-25T08:56:07.264Z,33.29
2019-04-25T08:57:06.905Z,32.91
2019-04-25T08:58:06.925Z,33.1
2019-04-25T08:59:10.199Z,33
2019-04-25T09:00:08.577Z,33.39
2019-04-25T09:01:07.236Z,34.45
2019-04-25T09:02:07.207Z,34.26
2019-04-25T09:03:08.414Z,34.45
2019-04-25T09:04:07.630Z,34.55
2019-04-25T09:05:07.189Z,33.39
2019-04-25T09:06:07.256Z,34.06
2019-04-25T09:07:07.733Z,34.24
2019-04-25T09:08:06.953Z,34.06
2019-04-25T09:09:09.309Z,34.64
2019-04-25T09:10:06.958Z,34.55
2019-04-25T09:11:07.358Z,34.92
2019-04-25T09:12:07.212Z,34.53
2019-04-25T09:13:07.285Z,35.02
2019-04-25T09:14:06.971Z,35.21
2019-04-25T09:15:07.227Z,35.5
2019-04-25T09:16:07.269Z,34.82
2019-04-25T09:17:07.224Z,34.53
2019-04-25T09:18:07.237Z,34.24
2019-04-25T09:19:06.995Z,34.92
2019-04-25T09:20:06.994Z,34.34
2019-04-25T09:21:07.295Z,35.21
2019-04-25T09:22:07.001Z,35.32
2019-04-25T09:23:07.431Z,35.32
2019-04-25T09:24:06.995Z,34.64
2019-04-25T09:25:07.256Z,34.56
2019-04-25T09:26:08.114Z,34.28
2019-04-25T09:27:07.254Z,35.53
2019-04-25T09:28:07.261Z,35.05
2019-04-25T09:29:19.973Z,34.47
2019-04-25T09:30:07.949Z,33.98
2019-04-25T09:31:07.269Z,33.98
2019-04-25T09:32:07.268Z,34.86
2019-04-25T09:33:07.282Z,34.47
2019-04-25T09:34:07.028Z,33.91
2019-04-25T09:35:07.027Z,34.28
2019-04-25T09:36:09.303Z,34.18
2019-04-25T09:37:07.032Z,34.28
2019-04-25T09:38:07.280Z,34.86
2019-04-25T09:39:07.284Z,35.06
2019-04-25T09:40:07.289Z,34.58
2019-04-25T09:41:07.651Z,34.39
2019-04-25T09:42:07.042Z,34.68
2019-04-25T09:43:07.333Z,35.06
2019-04-25T09:44:07.327Z,34.58
2019-04-25T09:45:07.051Z,34.1
2019-04-25T09:46:07.300Z,34.29
2019-04-25T09:47:07.055Z,34.68
2019-04-25T09:48:07.073Z,33.62
2019-04-25T09:49:07.065Z,33.52
2019-04-25T09:50:07.333Z,33.23
2019-04-25T09:51:08.109Z,34
2019-04-25T09:52:07.072Z,32.96
2019-04-25T09:53:07.360Z,32.75
2019-04-25T09:54:07.088Z,32.65
2019-04-25T09:55:07.328Z,32.94
2019-04-25T09:56:07.254Z,33.04
2019-04-25T09:57:07.333Z,32.96
2019-04-25T09:58:07.337Z,33.05
2019-04-25T09:59:07.392Z,32.86
2019-04-25T10:00:07.421Z,33.05
2019-04-25T10:01:08.245Z,32.96
2019-04-25T10:02:07.129Z,32.96
2019-04-25T10:03:07.352Z,32.96
2019-04-25T10:04:07.354Z,32.67
2019-04-25T10:05:07.408Z,32.96
2019-04-25T10:06:07.127Z,32.09
2019-04-25T10:07:07.365Z,32.59
2019-04-25T10:08:07.367Z,32.2
2019-04-25T10:09:07.484Z,31.91
2019-04-25T10:10:07.367Z,32.1
2019-04-25T10:11:07.433Z,32.87
2019-04-25T10:12:07.181Z,32.97
2019-04-25T10:13:09.014Z,32.59
2019-04-25T10:14:07.134Z,32.97
2019-04-25T10:15:07.404Z,32.1
2019-04-25T10:16:07.198Z,32.2
2019-04-25T10:17:07.414Z,31.91
2019-04-25T10:18:07.216Z,31.83
2019-04-25T10:19:07.176Z,32.1
2019-04-25T10:20:07.412Z,31.43
2019-04-25T10:21:07.457Z,31.91
2019-04-25T10:22:07.410Z,33.37
2019-04-25T10:23:07.483Z,31.83
2019-04-25T10:24:07.416Z,32.1
2019-04-25T10:25:07.181Z,32.79
2019-04-25T10:26:07.219Z,31.54
2019-04-25T10:27:07.434Z,31.15
2019-04-25T10:28:07.428Z,31.63
2019-04-25T10:29:07.432Z,31.05
2019-04-25T10:30:23.461Z,31.73
2019-04-25T10:31:07.483Z,32.79
2019-04-25T10:32:07.253Z,31.83
2019-04-25T10:33:07.195Z,32.89
2019-04-25T10:34:07.472Z,32.21
2019-04-25T10:35:07.200Z,32.21
2019-04-25T10:36:07.251Z,32.02
2019-04-25T10:37:07.472Z,31.54
2019-04-25T10:38:07.462Z,32.02
2019-04-25T10:39:14.598Z,30.76
2019-04-25T10:40:07.217Z,30.96
2019-04-25T10:41:07.627Z,30.18
2019-04-25T10:42:07.472Z,30.28
2019-04-25T10:43:07.473Z,30.47
2019-04-25T10:44:07.526Z,30
2019-04-25T10:45:20.141Z,30.08
2019-04-25T10:46:07.613Z,29.99
2019-04-25T10:47:07.241Z,29.99
2019-04-25T10:48:07.261Z,30.28
2019-04-25T10:49:07.500Z,29.99
2019-04-25T10:50:07.494Z,30.28
2019-04-25T10:51:07.492Z,30.08
2019-04-25T10:52:07.500Z,30.18
2019-04-25T10:53:07.505Z,30.2
2019-04-25T10:54:07.261Z,30.78
2019-04-25T10:55:07.267Z,30.1
2019-04-25T10:56:08.432Z,30.29
2019-04-25T10:57:09.037Z,30.78
2019-04-25T10:58:07.268Z,30.98
2019-04-25T10:59:07.526Z,32.04
2019-04-25T11:00:11.738Z,31.84
2019-04-25T11:01:07.577Z,31.94
2019-04-25T11:02:07.532Z,30.89
2019-04-25T11:03:07.539Z,30.31
2019-04-25T11:04:07.318Z,30.41
2019-04-25T11:05:07.311Z,30.21
2019-04-25T11:06:07.609Z,29.83
2019-04-25T11:07:07.555Z,29.63
2019-04-25T11:08:07.558Z,29.63
2019-04-25T11:09:07.560Z,29.92
2019-04-25T11:10:07.306Z,29.44
2019-04-25T11:11:07.365Z,29.83
2019-04-25T11:12:07.567Z,30.21
2019-04-25T11:13:07.571Z,29.63
2019-04-25T11:14:09.903Z,29.44
2019-04-25T11:15:07.328Z,29.63
2019-04-25T11:16:07.659Z,30.31
2019-04-25T11:17:07.579Z,30.23
2019-04-25T11:18:07.627Z,29.74
2019-04-25T11:19:07.609Z,30.13
2019-04-25T11:20:08.006Z,29.64
2019-04-25T11:21:08.543Z,28.49
2019-04-25T11:22:07.602Z,28.19
2019-04-25T11:23:07.370Z,27.61
2019-04-25T11:24:07.621Z,26.85
2019-04-25T11:25:07.639Z,27.53
2019-04-25T11:26:07.871Z,28.02
2019-04-25T11:27:07.371Z,27.82
2019-04-25T11:28:07.635Z,29.66
2019-04-25T11:29:07.628Z,29.57
2019-04-25T11:30:13.926Z,29.37
2019-04-25T11:31:07.729Z,28.4
2019-04-25T11:32:07.637Z,28.4
2019-04-25T11:33:07.636Z,28.02
2019-04-25T11:34:07.647Z,27.53
2019-04-25T11:35:07.653Z,26.86
2019-04-25T11:36:07.763Z,27.93
2019-04-25T11:37:08.336Z,26.67
2019-04-25T11:38:08.177Z,26.18
2019-04-25T11:39:07.422Z,25.6
2019-04-25T11:40:07.672Z,24.92
2019-04-25T11:41:07.819Z,24.54
2019-04-25T11:42:07.681Z,24.44
2019-04-25T11:43:07.686Z,23.27
2019-04-25T11:44:07.705Z,23.47
2019-04-25T11:45:08.434Z,23.18
2019-04-25T11:46:07.754Z,22.6
2019-04-25T11:47:10.040Z,22.99
2019-04-25T11:48:07.794Z,22.89
2019-04-25T11:49:07.454Z,22.79
2019-04-25T11:50:07.705Z,22.58
2019-04-25T11:51:07.758Z,23.36
2019-04-25T11:52:07.770Z,22.6
2019-04-25T11:53:07.718Z,22.89
2019-04-25T11:54:07.735Z,22.79
2019-04-25T11:55:07.733Z,22.6
2019-04-25T11:56:07.830Z,22.5
2019-04-25T11:57:07.486Z,22.3
2019-04-25T11:58:07.737Z,22.5
2019-04-25T11:59:07.501Z,22.89
2019-04-25T12:00:07.741Z,22.69
2019-04-25T12:01:07.564Z,22.41
2019-04-25T12:02:07.751Z,22.4
2019-04-25T12:03:07.756Z,22.69
2019-04-25T12:04:07.796Z,22.4
2019-04-25T12:05:07.514Z,23.08
2019-04-25T12:06:07.885Z,23.57
2019-04-25T12:07:10.407Z,23.58
2019-04-25T12:08:07.774Z,22.8
2019-04-25T12:09:07.807Z,22.71
2019-04-25T12:10:07.531Z,22.31
2019-04-25T12:11:08.479Z,22.31
2019-04-25T12:12:07.962Z,22.31
2019-04-25T12:13:07.806Z,22.03
2019-04-25T12:14:07.827Z,22.62
2019-04-25T12:15:07.558Z,22.33
2019-04-25T12:16:07.864Z,21.26
2019-04-25T12:17:07.566Z,21.26
2019-04-25T12:18:07.823Z,22.33
2019-04-25T12:19:07.570Z,21.36
2019-04-25T12:20:07.582Z,21.45
2019-04-25T12:21:07.696Z,21.44
2019-04-25T12:22:07.597Z,21.83
2019-04-25T12:23:14.385Z,22.12
2019-04-25T12:24:08.236Z,21.64
2019-04-25T12:25:07.600Z,21.54
2019-04-25T12:26:07.960Z,21.54
2019-04-25T12:27:07.871Z,21.44
2019-04-25T12:28:08.163Z,21.44
2019-04-25T12:29:07.880Z,20.47
2019-04-25T12:30:08.034Z,21.05
2019-04-25T12:31:07.670Z,20.97
2019-04-25T12:32:07.876Z,20.39
2019-04-25T12:33:21.521Z,20.29
2019-04-25T12:34:07.652Z,20.48
2019-04-25T12:35:08.672Z,19.51
2019-04-25T12:36:07.944Z,19.8
2019-04-25T12:37:07.665Z,20.97
2019-04-25T12:38:08.047Z,21.16
2019-04-25T12:39:07.943Z,21.55
2019-04-25T12:40:08.306Z,22.41
2019-04-25T12:41:07.981Z,21.75
2019-04-25T12:42:07.673Z,21.15
2019-04-25T12:43:07.667Z,20.96
2019-04-25T12:44:08.848Z,19.8
2019-04-25T12:45:07.684Z,19.7
2019-04-25T12:46:07.845Z,18.35
2019-04-25T12:47:07.953Z,17.28
2019-04-25T12:48:07.724Z,17.38
2019-04-25T12:49:07.941Z,16.89
2019-04-25T12:50:08.004Z,16.11
2019-04-25T12:51:08.025Z,15.14
2019-04-25T12:52:07.731Z,15.63
2019-04-25T12:53:07.983Z,15.63
2019-04-25T12:54:09.042Z,15.34
2019-04-25T12:55:07.727Z,14.75